sensor_id;sensor_type;location;lat;lon;timestamp;P1;durP1;ratioP1;P2;durP2;ratioP2
71941;SDS011;59997;53.300;-6.260;2024-03-22T00:01:41;31.77;;;4.53;;
71941;SDS011;59997;53.300;-6.260;2024-03-22T00:04:06;27.00;;;5.50;;
71941;SDS011;59997;53.300;-6.260;2024-03-22T00:06:32;27.00;;;3.67;;
71941;SDS011;59997;53.300;-6.260;2024-03-22T00:08:57;28.37;;;3.93;;
71941;SDS011;59997;53.300;-6.260;2024-03-22T00:11:23;23.90;;;4.77;;
71941;SDS011;59997;53.300;-6.260;2024-03-22T00:13:49;19.98;;;3.50;;
71941;SDS011;59997;53.300;-6.260;2024-03-22T00:16:14;33.40;;;3.73;;
71941;SDS011;59997;53.300;-6.260;2024-03-22T00:18:40;26.08;;;3.95;;
71941;SDS011;59997;53.300;-6.260;2024-03-22T00:21:05;26.07;;;3.37;;
71941;SDS011;59997;53.300;-6.260;2024-03-22T00:23:31;31.33;;;3.70;;
71941;SDS011;59997;53.300;-6.260;2024-03-22T00:25:56;30.05;;;3.80;;
71941;SDS011;59997;53.300;-6.260;2024-03-22T00:28:22;29.60;;;3.50;;
71941;SDS011;59997;53.300;-6.260;2024-03-22T00:30:47;30.83;;;3.60;;
71941;SDS011;59997;53.300;-6.260;2024-03-22T00:33:13;31.00;;;4.10;;
71941;SDS011;59997;53.300;-6.260;2024-03-22T00:35:38;30.95;;;3.45;;
71941;SDS011;59997;53.300;-6.260;2024-03-22T00:38:03;24.20;;;3.20;;
71941;SDS011;59997;53.300;-6.260;2024-03-22T00:40:29;40.83;;;4.33;;
71941;SDS011;59997;53.300;-6.260;2024-03-22T00:42:54;26.77;;;3.23;;
71941;SDS011;59997;53.300;-6.260;2024-03-22T00:45:20;35.30;;;4.13;;
71941;SDS011;59997;53.300;-6.260;2024-03-22T00:47:45;29.58;;;4.00;;
71941;SDS011;59997;53.300;-6.260;2024-03-22T00:50:11;26.87;;;3.03;;
71941;SDS011;59997;53.300;-6.260;2024-03-22T00:52:37;19.98;;;3.38;;
71941;SDS011;59997;53.300;-6.260;2024-03-22T00:55:03;34.10;;;3.45;;
71941;SDS011;59997;53.300;-6.260;2024-03-22T00:57:30;33.83;;;4.03;;
71941;SDS011;59997;53.300;-6.260;2024-03-22T00:59:55;35.30;;;5.13;;
71941;SDS011;59997;53.300;-6.260;2024-03-22T01:02:21;33.60;;;3.63;;
71941;SDS011;59997;53.300;-6.260;2024-03-22T01:04:47;21.50;;;2.67;;
71941;SDS011;59997;53.300;-6.260;2024-03-22T01:07:13;25.87;;;4.27;;
71941;SDS011;59997;53.300;-6.260;2024-03-22T01:09:38;33.38;;;3.50;;
71941;SDS011;59997;53.300;-6.260;2024-03-22T01:12:04;29.77;;;3.87;;
71941;SDS011;59997;53.300;-6.260;2024-03-22T01:14:30;23.92;;;3.28;;
71941;SDS011;59997;53.300;-6.260;2024-03-22T01:16:56;31.45;;;3.65;;
71941;SDS011;59997;53.300;-6.260;2024-03-22T01:19:21;35.67;;;4.00;;
71941;SDS011;59997;53.300;-6.260;2024-03-22T01:21:48;29.55;;;4.35;;
71941;SDS011;59997;53.300;-6.260;2024-03-22T01:24:14;28.73;;;2.90;;
71941;SDS011;59997;53.300;-6.260;2024-03-22T01:26:39;37.83;;;5.18;;
71941;SDS011;59997;53.300;-6.260;2024-03-22T01:29:05;31.90;;;3.53;;
71941;SDS011;59997;53.300;-6.260;2024-03-22T01:31:30;32.50;;;4.43;;
71941;SDS011;59997;53.300;-6.260;2024-03-22T01:33:56;30.52;;;3.55;;
71941;SDS011;59997;53.300;-6.260;2024-03-22T01:36:21;45.23;;;4.37;;
71941;SDS011;59997;53.300;-6.260;2024-03-22T01:38:46;28.87;;;3.23;;
71941;SDS011;59997;53.300;-6.260;2024-03-22T01:41:12;30.33;;;3.83;;
71941;SDS011;59997;53.300;-6.260;2024-03-22T01:43:37;42.22;;;3.55;;
71941;SDS011;59997;53.300;-6.260;2024-03-22T01:46:03;41.20;;;4.10;;
71941;SDS011;59997;53.300;-6.260;2024-03-22T01:48:29;34.50;;;4.65;;
71941;SDS011;59997;53.300;-6.260;2024-03-22T01:50:55;28.40;;;3.87;;
71941;SDS011;59997;53.300;-6.260;2024-03-22T01:53:22;27.33;;;3.33;;
71941;SDS011;59997;53.300;-6.260;2024-03-22T01:55:48;25.23;;;3.15;;
71941;SDS011;59997;53.300;-6.260;2024-03-22T01:58:14;34.83;;;3.60;;
71941;SDS011;59997;53.300;-6.260;2024-03-22T02:00:39;38.03;;;4.00;;
71941;SDS011;59997;53.300;-6.260;2024-03-22T02:03:05;29.83;;;3.10;;
71941;SDS011;59997;53.300;-6.260;2024-03-22T02:05:30;30.10;;;3.57;;
71941;SDS011;59997;53.300;-6.260;2024-03-22T02:07:56;25.77;;;3.50;;
71941;SDS011;59997;53.300;-6.260;2024-03-22T02:10:21;38.80;;;4.63;;
71941;SDS011;59997;53.300;-6.260;2024-03-22T02:12:47;29.60;;;3.92;;
71941;SDS011;59997;53.300;-6.260;2024-03-22T02:15:12;32.73;;;4.07;;
71941;SDS011;59997;53.300;-6.260;2024-03-22T02:17:38;28.47;;;3.37;;
71941;SDS011;59997;53.300;-6.260;2024-03-22T02:20:03;25.37;;;3.20;;
71941;SDS011;59997;53.300;-6.260;2024-03-22T02:22:30;30.27;;;3.47;;
71941;SDS011;59997;53.300;-6.260;2024-03-22T02:24:55;31.90;;;4.65;;
71941;SDS011;59997;53.300;-6.260;2024-03-22T02:27:21;32.10;;;3.93;;
71941;SDS011;59997;53.300;-6.260;2024-03-22T02:29:46;37.87;;;3.80;;
71941;SDS011;59997;53.300;-6.260;2024-03-22T02:32:12;29.97;;;4.13;;
71941;SDS011;59997;53.300;-6.260;2024-03-22T02:34:37;33.33;;;3.77;;
71941;SDS011;59997;53.300;-6.260;2024-03-22T02:37:03;40.00;;;5.60;;
71941;SDS011;59997;53.300;-6.260;2024-03-22T02:39:28;35.00;;;3.40;;
71941;SDS011;59997;53.300;-6.260;2024-03-22T02:41:54;35.50;;;3.77;;
71941;SDS011;59997;53.300;-6.260;2024-03-22T02:44:20;28.35;;;3.72;;
71941;SDS011;59997;53.300;-6.260;2024-03-22T02:46:46;37.00;;;4.73;;
71941;SDS011;59997;53.300;-6.260;2024-03-22T02:49:12;26.97;;;4.10;;
71941;SDS011;59997;53.300;-6.260;2024-03-22T02:51:37;34.28;;;4.88;;
71941;SDS011;59997;53.300;-6.260;2024-03-22T02:54:03;31.23;;;4.18;;
71941;SDS011;59997;53.300;-6.260;2024-03-22T02:56:29;37.07;;;4.80;;
71941;SDS011;59997;53.300;-6.260;2024-03-22T02:58:55;30.80;;;2.90;;
71941;SDS011;59997;53.300;-6.260;2024-03-22T03:01:20;31.73;;;3.80;;
71941;SDS011;59997;53.300;-6.260;2024-03-22T03:03:46;32.83;;;3.70;;
71941;SDS011;59997;53.300;-6.260;2024-03-22T03:06:11;23.80;;;3.83;;
71941;SDS011;59997;53.300;-6.260;2024-03-22T03:08:41;29.40;;;3.85;;
71941;SDS011;59997;53.300;-6.260;2024-03-22T03:11:07;26.40;;;3.70;;
71941;SDS011;59997;53.300;-6.260;2024-03-22T03:13:32;33.57;;;3.80;;
71941;SDS011;59997;53.300;-6.260;2024-03-22T03:15:57;35.53;;;4.23;;
71941;SDS011;59997;53.300;-6.260;2024-03-22T03:18:23;30.90;;;3.80;;
71941;SDS011;59997;53.300;-6.260;2024-03-22T03:20:49;38.83;;;4.35;;
71941;SDS011;59997;53.300;-6.260;2024-03-22T03:23:15;36.60;;;3.78;;
71941;SDS011;59997;53.300;-6.260;2024-03-22T03:25:40;28.80;;;3.33;;
71941;SDS011;59997;53.300;-6.260;2024-03-22T03:28:06;38.07;;;3.67;;
71941;SDS011;59997;53.300;-6.260;2024-03-22T03:30:32;26.00;;;3.13;;
71941;SDS011;59997;53.300;-6.260;2024-03-22T03:32:59;27.77;;;3.75;;
71941;SDS011;59997;53.300;-6.260;2024-03-22T03:35:24;33.43;;;3.47;;
71941;SDS011;59997;53.300;-6.260;2024-03-22T03:37:51;27.75;;;3.70;;
71941;SDS011;59997;53.300;-6.260;2024-03-22T03:40:16;23.07;;;3.10;;
71941;SDS011;59997;53.300;-6.260;2024-03-22T03:42:42;33.08;;;3.33;;
71941;SDS011;59997;53.300;-6.260;2024-03-22T03:45:07;22.00;;;2.73;;
71941;SDS011;59997;53.300;-6.260;2024-03-22T03:47:33;27.93;;;3.07;;
71941;SDS011;59997;53.300;-6.260;2024-03-22T03:49:59;37.00;;;3.35;;
71941;SDS011;59997;53.300;-6.260;2024-03-22T03:52:24;24.60;;;2.70;;
71941;SDS011;59997;53.300;-6.260;2024-03-22T03:54:50;27.67;;;3.60;;
71941;SDS011;59997;53.300;-6.260;2024-03-22T03:57:15;27.77;;;3.17;;
71941;SDS011;59997;53.300;-6.260;2024-03-22T03:59:41;25.73;;;3.00;;
71941;SDS011;59997;53.300;-6.260;2024-03-22T04:02:06;32.63;;;3.70;;
71941;SDS011;59997;53.300;-6.260;2024-03-22T04:04:31;20.83;;;2.85;;
71941;SDS011;59997;53.300;-6.260;2024-03-22T04:06:57;30.20;;;3.33;;
71941;SDS011;59997;53.300;-6.260;2024-03-22T04:09:23;29.87;;;3.93;;
71941;SDS011;59997;53.300;-6.260;2024-03-22T04:11:49;25.13;;;3.33;;
71941;SDS011;59997;53.300;-6.260;2024-03-22T04:14:14;24.53;;;3.23;;
71941;SDS011;59997;53.300;-6.260;2024-03-22T04:16:40;32.33;;;3.38;;
71941;SDS011;59997;53.300;-6.260;2024-03-22T04:19:05;23.27;;;2.60;;
71941;SDS011;59997;53.300;-6.260;2024-03-22T04:21:31;32.00;;;3.47;;
71941;SDS011;59997;53.300;-6.260;2024-03-22T04:23:56;32.63;;;3.47;;
71941;SDS011;59997;53.300;-6.260;2024-03-22T04:26:21;26.35;;;2.85;;
71941;SDS011;59997;53.300;-6.260;2024-03-22T04:28:48;22.90;;;3.00;;
71941;SDS011;59997;53.300;-6.260;2024-03-22T04:31:13;25.85;;;3.67;;
71941;SDS011;59997;53.300;-6.260;2024-03-22T04:33:39;25.00;;;2.77;;
71941;SDS011;59997;53.300;-6.260;2024-03-22T04:36:05;20.23;;;3.22;;
71941;SDS011;59997;53.300;-6.260;2024-03-22T04:38:31;28.17;;;2.80;;
71941;SDS011;59997;53.300;-6.260;2024-03-22T04:40:56;27.40;;;3.70;;
71941;SDS011;59997;53.300;-6.260;2024-03-22T04:43:22;24.33;;;2.83;;
71941;SDS011;59997;53.300;-6.260;2024-03-22T04:45:49;39.05;;;3.58;;
71941;SDS011;59997;53.300;-6.260;2024-03-22T04:48:19;28.08;;;3.42;;
71941;SDS011;59997;53.300;-6.260;2024-03-22T04:50:49;19.05;;;3.63;;
71941;SDS011;59997;53.300;-6.260;2024-03-22T04:53:19;31.33;;;3.55;;
71941;SDS011;59997;53.300;-6.260;2024-03-22T04:55:48;30.15;;;3.35;;
71941;SDS011;59997;53.300;-6.260;2024-03-22T04:58:15;23.70;;;2.78;;
71941;SDS011;59997;53.300;-6.260;2024-03-22T05:00:45;23.08;;;2.92;;
71941;SDS011;59997;53.300;-6.260;2024-03-22T05:03:11;26.25;;;3.33;;
71941;SDS011;59997;53.300;-6.260;2024-03-22T05:05:37;24.02;;;3.67;;
71941;SDS011;59997;53.300;-6.260;2024-03-22T05:08:03;29.48;;;2.92;;
71941;SDS011;59997;53.300;-6.260;2024-03-22T05:10:29;22.90;;;2.90;;
71941;SDS011;59997;53.300;-6.260;2024-03-22T05:12:58;22.25;;;3.15;;
71941;SDS011;59997;53.300;-6.260;2024-03-22T05:15:24;25.65;;;2.97;;
71941;SDS011;59997;53.300;-6.260;2024-03-22T05:17:56;21.40;;;2.55;;
71941;SDS011;59997;53.300;-6.260;2024-03-22T05:20:23;33.00;;;2.80;;
71941;SDS011;59997;53.300;-6.260;2024-03-22T05:22:49;20.10;;;2.17;;
71941;SDS011;59997;53.300;-6.260;2024-03-22T05:25:14;25.17;;;3.13;;
71941;SDS011;59997;53.300;-6.260;2024-03-22T05:27:40;19.52;;;2.80;;
71941;SDS011;59997;53.300;-6.260;2024-03-22T05:30:07;22.25;;;2.25;;
71941;SDS011;59997;53.300;-6.260;2024-03-22T05:32:33;26.38;;;3.03;;
71941;SDS011;59997;53.300;-6.260;2024-03-22T05:34:58;21.07;;;2.20;;
71941;SDS011;59997;53.300;-6.260;2024-03-22T05:37:24;30.43;;;3.53;;
71941;SDS011;59997;53.300;-6.260;2024-03-22T05:39:50;24.48;;;2.75;;
71941;SDS011;59997;53.300;-6.260;2024-03-22T05:42:15;17.93;;;2.63;;
71941;SDS011;59997;53.300;-6.260;2024-03-22T05:44:41;19.30;;;2.37;;
71941;SDS011;59997;53.300;-6.260;2024-03-22T05:47:06;16.30;;;1.50;;
71941;SDS011;59997;53.300;-6.260;2024-03-22T05:49:31;23.42;;;2.60;;
71941;SDS011;59997;53.300;-6.260;2024-03-22T05:51:57;19.43;;;2.03;;
71941;SDS011;59997;53.300;-6.260;2024-03-22T05:54:23;21.45;;;2.75;;
71941;SDS011;59997;53.300;-6.260;2024-03-22T05:56:49;19.07;;;2.20;;
71941;SDS011;59997;53.300;-6.260;2024-03-22T05:59:14;22.33;;;2.85;;
71941;SDS011;59997;53.300;-6.260;2024-03-22T06:01:40;22.15;;;3.45;;
71941;SDS011;59997;53.300;-6.260;2024-03-22T06:04:05;19.63;;;2.20;;
71941;SDS011;59997;53.300;-6.260;2024-03-22T06:06:34;27.30;;;3.67;;
71941;SDS011;59997;53.300;-6.260;2024-03-22T06:09:00;21.20;;;2.17;;
71941;SDS011;59997;53.300;-6.260;2024-03-22T06:11:32;21.83;;;2.05;;
71941;SDS011;59997;53.300;-6.260;2024-03-22T06:13:57;22.42;;;2.05;;
71941;SDS011;59997;53.300;-6.260;2024-03-22T06:16:23;26.50;;;2.27;;
71941;SDS011;59997;53.300;-6.260;2024-03-22T06:18:49;25.27;;;2.17;;
71941;SDS011;59997;53.300;-6.260;2024-03-22T06:21:14;23.73;;;3.30;;
71941;SDS011;59997;53.300;-6.260;2024-03-22T06:23:40;20.37;;;2.00;;
71941;SDS011;59997;53.300;-6.260;2024-03-22T06:26:06;19.45;;;2.28;;
71941;SDS011;59997;53.300;-6.260;2024-03-22T06:28:32;19.92;;;2.22;;
71941;SDS011;59997;53.300;-6.260;2024-03-22T06:30:57;23.27;;;2.17;;
71941;SDS011;59997;53.300;-6.260;2024-03-22T06:33:23;23.40;;;2.40;;
71941;SDS011;59997;53.300;-6.260;2024-03-22T06:35:49;25.00;;;2.47;;
71941;SDS011;59997;53.300;-6.260;2024-03-22T06:38:14;20.03;;;1.60;;
71941;SDS011;59997;53.300;-6.260;2024-03-22T06:40:40;25.73;;;3.03;;
71941;SDS011;59997;53.300;-6.260;2024-03-22T06:43:06;21.55;;;2.95;;
71941;SDS011;59997;53.300;-6.260;2024-03-22T06:45:31;16.47;;;1.93;;
71941;SDS011;59997;53.300;-6.260;2024-03-22T06:47:57;20.38;;;1.90;;
71941;SDS011;59997;53.300;-6.260;2024-03-22T06:50:22;22.10;;;2.20;;
71941;SDS011;59997;53.300;-6.260;2024-03-22T06:52:52;17.88;;;2.42;;
71941;SDS011;59997;53.300;-6.260;2024-03-22T06:55:18;14.20;;;1.83;;
71941;SDS011;59997;53.300;-6.260;2024-03-22T06:57:45;13.50;;;1.40;;
71941;SDS011;59997;53.300;-6.260;2024-03-22T07:00:12;21.05;;;2.22;;
71941;SDS011;59997;53.300;-6.260;2024-03-22T07:02:38;23.85;;;1.73;;
71941;SDS011;59997;53.300;-6.260;2024-03-22T07:05:05;21.58;;;2.10;;
71941;SDS011;59997;53.300;-6.260;2024-03-22T07:07:31;17.93;;;2.00;;
71941;SDS011;59997;53.300;-6.260;2024-03-22T07:09:56;14.48;;;1.45;;
71941;SDS011;59997;53.300;-6.260;2024-03-22T07:12:22;14.47;;;1.97;;
71941;SDS011;59997;53.300;-6.260;2024-03-22T07:14:47;14.57;;;1.90;;
71941;SDS011;59997;53.300;-6.260;2024-03-22T07:17:13;17.37;;;2.07;;
71941;SDS011;59997;53.300;-6.260;2024-03-22T07:19:40;15.95;;;1.48;;
71941;SDS011;59997;53.300;-6.260;2024-03-22T07:22:05;16.73;;;1.70;;
71941;SDS011;59997;53.300;-6.260;2024-03-22T07:24:31;14.65;;;1.73;;
71941;SDS011;59997;53.300;-6.260;2024-03-22T07:26:57;12.25;;;1.52;;
71941;SDS011;59997;53.300;-6.260;2024-03-22T07:29:22;11.47;;;1.70;;
71941;SDS011;59997;53.300;-6.260;2024-03-22T07:31:48;16.57;;;2.03;;
71941;SDS011;59997;53.300;-6.260;2024-03-22T07:34:13;16.27;;;1.60;;
71941;SDS011;59997;53.300;-6.260;2024-03-22T07:36:39;16.88;;;2.13;;
71941;SDS011;59997;53.300;-6.260;2024-03-22T07:39:05;10.77;;;1.33;;
71941;SDS011;59997;53.300;-6.260;2024-03-22T07:41:33;14.15;;;1.83;;
71941;SDS011;59997;53.300;-6.260;2024-03-22T07:43:59;13.07;;;1.42;;
71941;SDS011;59997;53.300;-6.260;2024-03-22T07:46:25;15.53;;;1.63;;
71941;SDS011;59997;53.300;-6.260;2024-03-22T07:48:51;11.80;;;1.63;;
71941;SDS011;59997;53.300;-6.260;2024-03-22T07:51:17;12.52;;;1.55;;
71941;SDS011;59997;53.300;-6.260;2024-03-22T07:53:43;14.47;;;1.20;;
71941;SDS011;59997;53.300;-6.260;2024-03-22T07:56:08;18.02;;;1.77;;
71941;SDS011;59997;53.300;-6.260;2024-03-22T07:58:34;23.73;;;1.97;;
71941;SDS011;59997;53.300;-6.260;2024-03-22T08:00:59;13.57;;;1.63;;
71941;SDS011;59997;53.300;-6.260;2024-03-22T08:03:25;13.68;;;1.30;;
71941;SDS011;59997;53.300;-6.260;2024-03-22T08:05:50;15.57;;;1.80;;
71941;SDS011;59997;53.300;-6.260;2024-03-22T08:08:16;9.17;;;1.20;;
71941;SDS011;59997;53.300;-6.260;2024-03-22T08:10:42;16.40;;;1.58;;
71941;SDS011;59997;53.300;-6.260;2024-03-22T08:13:08;14.33;;;1.60;;
71941;SDS011;59997;53.300;-6.260;2024-03-22T08:15:33;9.20;;;1.40;;
71941;SDS011;59997;53.300;-6.260;2024-03-22T08:17:59;10.50;;;1.90;;
71941;SDS011;59997;53.300;-6.260;2024-03-22T08:20:25;14.55;;;2.63;;
71941;SDS011;59997;53.300;-6.260;2024-03-22T08:22:50;10.17;;;1.73;;
71941;SDS011;59997;53.300;-6.260;2024-03-22T08:25:16;15.67;;;2.20;;
71941;SDS011;59997;53.300;-6.260;2024-03-22T08:27:46;15.88;;;2.42;;
71941;SDS011;59997;53.300;-6.260;2024-03-22T08:30:12;16.80;;;2.42;;
71941;SDS011;59997;53.300;-6.260;2024-03-22T08:32:38;14.40;;;2.00;;
71941;SDS011;59997;53.300;-6.260;2024-03-22T08:35:03;15.18;;;2.65;;
71941;SDS011;59997;53.300;-6.260;2024-03-22T08:37:29;14.20;;;1.88;;
71941;SDS011;59997;53.300;-6.260;2024-03-22T08:39:56;16.77;;;1.80;;
71941;SDS011;59997;53.300;-6.260;2024-03-22T08:42:22;15.63;;;1.80;;
71941;SDS011;59997;53.300;-6.260;2024-03-22T08:44:47;25.30;;;2.57;;
71941;SDS011;59997;53.300;-6.260;2024-03-22T08:47:12;14.73;;;2.07;;
71941;SDS011;59997;53.300;-6.260;2024-03-22T08:49:38;13.87;;;2.27;;
71941;SDS011;59997;53.300;-6.260;2024-03-22T08:52:06;11.53;;;2.07;;
71941;SDS011;59997;53.300;-6.260;2024-03-22T08:54:32;12.77;;;1.83;;
71941;SDS011;59997;53.300;-6.260;2024-03-22T08:56:58;16.30;;;2.07;;
71941;SDS011;59997;53.300;-6.260;2024-03-22T08:59:23;14.00;;;2.13;;
71941;SDS011;59997;53.300;-6.260;2024-03-22T09:01:49;15.68;;;1.90;;
71941;SDS011;59997;53.300;-6.260;2024-03-22T09:04:15;10.30;;;1.90;;
71941;SDS011;59997;53.300;-6.260;2024-03-22T09:06:41;22.88;;;3.45;;
71941;SDS011;59997;53.300;-6.260;2024-03-22T09:09:06;12.53;;;2.27;;
71941;SDS011;59997;53.300;-6.260;2024-03-22T09:11:33;17.00;;;2.22;;
71941;SDS011;59997;53.300;-6.260;2024-03-22T09:13:58;19.03;;;3.07;;
71941;SDS011;59997;53.300;-6.260;2024-03-22T09:16:24;16.13;;;2.63;;
71941;SDS011;59997;53.300;-6.260;2024-03-22T09:18:50;10.33;;;1.70;;
71941;SDS011;59997;53.300;-6.260;2024-03-22T09:21:16;12.15;;;1.98;;
71941;SDS011;59997;53.300;-6.260;2024-03-22T09:23:41;13.03;;;1.97;;
71941;SDS011;59997;53.300;-6.260;2024-03-22T09:26:07;11.80;;;2.33;;
71941;SDS011;59997;53.300;-6.260;2024-03-22T09:28:32;14.57;;;2.63;;
71941;SDS011;59997;53.300;-6.260;2024-03-22T09:30:57;13.13;;;2.30;;
71941;SDS011;59997;53.300;-6.260;2024-03-22T09:33:23;13.90;;;2.63;;
71941;SDS011;59997;53.300;-6.260;2024-03-22T09:35:49;15.75;;;2.50;;
71941;SDS011;59997;53.300;-6.260;2024-03-22T09:38:14;15.00;;;2.63;;
71941;SDS011;59997;53.300;-6.260;2024-03-22T09:40:40;13.35;;;2.05;;
71941;SDS011;59997;53.300;-6.260;2024-03-22T09:43:06;18.37;;;2.00;;
71941;SDS011;59997;53.300;-6.260;2024-03-22T09:45:33;19.38;;;2.97;;
71941;SDS011;59997;53.300;-6.260;2024-03-22T09:47:59;19.48;;;2.83;;
71941;SDS011;59997;53.300;-6.260;2024-03-22T09:50:25;15.55;;;2.45;;
71941;SDS011;59997;53.300;-6.260;2024-03-22T09:52:54;14.32;;;2.13;;
71941;SDS011;59997;53.300;-6.260;2024-03-22T09:55:24;15.37;;;2.17;;
71941;SDS011;59997;53.300;-6.260;2024-03-22T09:57:50;17.80;;;2.50;;
71941;SDS011;59997;53.300;-6.260;2024-03-22T10:00:18;16.10;;;2.03;;
71941;SDS011;59997;53.300;-6.260;2024-03-22T10:02:48;13.07;;;2.22;;
71941;SDS011;59997;53.300;-6.260;2024-03-22T10:05:14;14.43;;;2.15;;
71941;SDS011;59997;53.300;-6.260;2024-03-22T10:07:40;13.83;;;2.30;;
71941;SDS011;59997;53.300;-6.260;2024-03-22T10:10:06;16.45;;;2.10;;
71941;SDS011;59997;53.300;-6.260;2024-03-22T10:12:32;13.85;;;1.88;;
71941;SDS011;59997;53.300;-6.260;2024-03-22T10:14:58;13.30;;;2.30;;
71941;SDS011;59997;53.300;-6.260;2024-03-22T10:17:26;14.45;;;2.20;;
71941;SDS011;59997;53.300;-6.260;2024-03-22T10:19:52;10.93;;;2.25;;
71941;SDS011;59997;53.300;-6.260;2024-03-22T10:22:17;11.80;;;2.03;;
71941;SDS011;59997;53.300;-6.260;2024-03-22T10:24:43;16.90;;;2.93;;
71941;SDS011;59997;53.300;-6.260;2024-03-22T10:27:09;13.57;;;2.45;;
71941;SDS011;59997;53.300;-6.260;2024-03-22T10:29:35;12.93;;;2.38;;
71941;SDS011;59997;53.300;-6.260;2024-03-22T10:32:01;14.90;;;2.00;;
71941;SDS011;59997;53.300;-6.260;2024-03-22T10:34:27;11.75;;;2.10;;
71941;SDS011;59997;53.300;-6.260;2024-03-22T10:36:55;9.93;;;1.77;;
71941;SDS011;59997;53.300;-6.260;2024-03-22T10:39:21;16.25;;;2.45;;
71941;SDS011;59997;53.300;-6.260;2024-03-22T10:41:48;13.45;;;2.45;;
71941;SDS011;59997;53.300;-6.260;2024-03-22T10:44:14;11.07;;;1.63;;
71941;SDS011;59997;53.300;-6.260;2024-03-22T10:46:47;14.77;;;1.98;;
71941;SDS011;59997;53.300;-6.260;2024-03-22T10:49:17;13.40;;;1.55;;
71941;SDS011;59997;53.300;-6.260;2024-03-22T10:51:45;11.20;;;1.90;;
71941;SDS011;59997;53.300;-6.260;2024-03-22T10:54:14;13.43;;;2.17;;
71941;SDS011;59997;53.300;-6.260;2024-03-22T10:56:44;9.50;;;1.95;;
71941;SDS011;59997;53.300;-6.260;2024-03-22T10:59:18;11.95;;;1.88;;
71941;SDS011;59997;53.300;-6.260;2024-03-22T11:01:48;10.88;;;2.42;;
71941;SDS011;59997;53.300;-6.260;2024-03-22T11:04:19;10.70;;;1.75;;
71941;SDS011;59997;53.300;-6.260;2024-03-22T11:06:51;15.77;;;2.13;;
71941;SDS011;59997;53.300;-6.260;2024-03-22T11:09:23;8.55;;;2.20;;
71941;SDS011;59997;53.300;-6.260;2024-03-22T11:11:53;12.18;;;2.17;;
71941;SDS011;59997;53.300;-6.260;2024-03-22T11:14:21;11.65;;;1.60;;
71941;SDS011;59997;53.300;-6.260;2024-03-22T11:16:48;8.20;;;1.55;;
71941;SDS011;59997;53.300;-6.260;2024-03-22T11:19:14;8.87;;;1.80;;
71941;SDS011;59997;53.300;-6.260;2024-03-22T11:21:39;12.07;;;2.17;;
71941;SDS011;59997;53.300;-6.260;2024-03-22T11:24:05;8.70;;;2.28;;
71941;SDS011;59997;53.300;-6.260;2024-03-22T11:26:31;8.90;;;1.40;;
71941;SDS011;59997;53.300;-6.260;2024-03-22T11:28:58;12.55;;;2.38;;
71941;SDS011;59997;53.300;-6.260;2024-03-22T11:31:23;9.55;;;1.55;;
71941;SDS011;59997;53.300;-6.260;2024-03-22T11:33:52;11.63;;;1.80;;
71941;SDS011;59997;53.300;-6.260;2024-03-22T11:36:19;12.03;;;1.53;;
71941;SDS011;59997;53.300;-6.260;2024-03-22T11:38:44;9.73;;;1.63;;
71941;SDS011;59997;53.300;-6.260;2024-03-22T11:41:10;14.07;;;1.90;;
71941;SDS011;59997;53.300;-6.260;2024-03-22T11:43:37;12.40;;;1.85;;
71941;SDS011;59997;53.300;-6.260;2024-03-22T11:46:03;7.00;;;1.10;;
71941;SDS011;59997;53.300;-6.260;2024-03-22T11:48:29;8.90;;;1.40;;
71941;SDS011;59997;53.300;-6.260;2024-03-22T11:50:55;11.47;;;1.50;;
71941;SDS011;59997;53.300;-6.260;2024-03-22T11:53:21;10.32;;;1.40;;
71941;SDS011;59997;53.300;-6.260;2024-03-22T11:55:48;9.35;;;1.50;;
71941;SDS011;59997;53.300;-6.260;2024-03-22T11:58:14;9.27;;;2.00;;
71941;SDS011;59997;53.300;-6.260;2024-03-22T12:00:42;9.13;;;1.48;;
71941;SDS011;59997;53.300;-6.260;2024-03-22T12:03:07;9.60;;;1.17;;
71941;SDS011;59997;53.300;-6.260;2024-03-22T12:05:34;9.43;;;1.70;;
71941;SDS011;59997;53.300;-6.260;2024-03-22T12:07:59;12.60;;;1.90;;
71941;SDS011;59997;53.300;-6.260;2024-03-22T12:10:25;8.43;;;1.55;;
71941;SDS011;59997;53.300;-6.260;2024-03-22T12:12:50;16.67;;;1.70;;
71941;SDS011;59997;53.300;-6.260;2024-03-22T12:15:16;11.40;;;1.53;;
71941;SDS011;59997;53.300;-6.260;2024-03-22T12:17:41;9.75;;;1.80;;
71941;SDS011;59997;53.300;-6.260;2024-03-22T12:20:08;7.70;;;1.53;;
71941;SDS011;59997;53.300;-6.260;2024-03-22T12:22:34;8.32;;;1.20;;
71941;SDS011;59997;53.300;-6.260;2024-03-22T12:25:00;7.40;;;1.40;;
71941;SDS011;59997;53.300;-6.260;2024-03-22T12:27:25;7.97;;;1.20;;
71941;SDS011;59997;53.300;-6.260;2024-03-22T12:29:51;16.33;;;2.40;;
71941;SDS011;59997;53.300;-6.260;2024-03-22T12:32:17;12.80;;;1.60;;
71941;SDS011;59997;53.300;-6.260;2024-03-22T12:34:42;8.77;;;1.53;;
71941;SDS011;59997;53.300;-6.260;2024-03-22T12:37:08;10.20;;;1.70;;
71941;SDS011;59997;53.300;-6.260;2024-03-22T12:39:34;8.40;;;1.17;;
71941;SDS011;59997;53.300;-6.260;2024-03-22T12:42:00;7.80;;;1.10;;
71941;SDS011;59997;53.300;-6.260;2024-03-22T12:44:25;11.47;;;1.60;;
71941;SDS011;59997;53.300;-6.260;2024-03-22T12:46:51;14.35;;;1.90;;
71941;SDS011;59997;53.300;-6.260;2024-03-22T12:49:17;9.63;;;1.60;;
71941;SDS011;59997;53.300;-6.260;2024-03-22T12:51:42;11.50;;;1.60;;
71941;SDS011;59997;53.300;-6.260;2024-03-22T12:54:08;9.27;;;1.60;;
71941;SDS011;59997;53.300;-6.260;2024-03-22T12:56:34;9.00;;;1.60;;
71941;SDS011;59997;53.300;-6.260;2024-03-22T12:58:59;7.70;;;1.17;;
71941;SDS011;59997;53.300;-6.260;2024-03-22T13:01:25;9.48;;;1.80;;
71941;SDS011;59997;53.300;-6.260;2024-03-22T13:03:51;12.77;;;1.70;;
71941;SDS011;59997;53.300;-6.260;2024-03-22T13:06:16;8.05;;;0.98;;
71941;SDS011;59997;53.300;-6.260;2024-03-22T13:08:42;11.33;;;1.30;;
71941;SDS011;59997;53.300;-6.260;2024-03-22T13:11:08;9.48;;;1.67;;
71941;SDS011;59997;53.300;-6.260;2024-03-22T13:13:34;9.30;;;2.00;;
71941;SDS011;59997;53.300;-6.260;2024-03-22T13:16:03;8.88;;;1.90;;
71941;SDS011;59997;53.300;-6.260;2024-03-22T13:18:29;8.10;;;1.05;;
71941;SDS011;59997;53.300;-6.260;2024-03-22T13:20:55;8.15;;;1.23;;
71941;SDS011;59997;53.300;-6.260;2024-03-22T13:23:20;7.17;;;1.17;;
71941;SDS011;59997;53.300;-6.260;2024-03-22T13:25:46;9.13;;;1.10;;
71941;SDS011;59997;53.300;-6.260;2024-03-22T13:28:12;7.27;;;1.07;;
71941;SDS011;59997;53.300;-6.260;2024-03-22T13:30:37;8.57;;;1.05;;
71941;SDS011;59997;53.300;-6.260;2024-03-22T13:33:04;13.50;;;1.60;;
71941;SDS011;59997;53.300;-6.260;2024-03-22T13:35:30;8.43;;;1.10;;
71941;SDS011;59997;53.300;-6.260;2024-03-22T13:37:58;8.10;;;1.50;;
71941;SDS011;59997;53.300;-6.260;2024-03-22T13:40:24;6.43;;;1.40;;
71941;SDS011;59997;53.300;-6.260;2024-03-22T13:42:52;9.20;;;1.00;;
71941;SDS011;59997;53.300;-6.260;2024-03-22T13:45:18;8.75;;;1.15;;
71941;SDS011;59997;53.300;-6.260;2024-03-22T13:47:44;8.37;;;0.80;;
71941;SDS011;59997;53.300;-6.260;2024-03-22T13:50:09;10.02;;;1.23;;
71941;SDS011;59997;53.300;-6.260;2024-03-22T13:52:35;6.53;;;0.97;;
71941;SDS011;59997;53.300;-6.260;2024-03-22T13:55:01;8.63;;;0.90;;
71941;SDS011;59997;53.300;-6.260;2024-03-22T13:57:27;6.93;;;0.80;;
71941;SDS011;59997;53.300;-6.260;2024-03-22T13:59:52;6.25;;;0.70;;
71941;SDS011;59997;53.300;-6.260;2024-03-22T14:02:18;8.20;;;1.00;;
71941;SDS011;59997;53.300;-6.260;2024-03-22T14:04:45;6.90;;;0.90;;
71941;SDS011;59997;53.300;-6.260;2024-03-22T14:07:10;6.03;;;0.90;;
71941;SDS011;59997;53.300;-6.260;2024-03-22T14:09:36;7.17;;;1.10;;
71941;SDS011;59997;53.300;-6.260;2024-03-22T14:12:01;5.60;;;0.90;;
71941;SDS011;59997;53.300;-6.260;2024-03-22T14:14:27;8.07;;;0.77;;
71941;SDS011;59997;53.300;-6.260;2024-03-22T14:16:54;5.23;;;0.70;;